createdAt,value
2018-03-29T00:00:06.298Z,9.43
2018-03-29T00:01:06.016Z,9.43
2018-03-29T00:02:06.020Z,9.4
2018-03-29T00:03:06.040Z,9.44
2018-03-29T00:04:05.797Z,9.48
2018-03-29T00:05:06.130Z,9.43
2018-03-29T00:06:05.829Z,9.4
2018-03-29T00:07:06.107Z,9.44
2018-03-29T00:08:06.121Z,9.39
2018-03-29T00:09:05.886Z,9.47
2018-03-29T00:10:06.409Z,9.44
2018-03-29T00:11:06.180Z,9.4
2018-03-29T00:12:06.448Z,9.44
2018-03-29T00:13:06.201Z,9.47
2018-03-29T00:14:06.228Z,9.32
2018-03-29T00:15:05.980Z,9.31
2018-03-29T00:16:06.520Z,9.4
2018-03-29T00:17:06.271Z,9.4
2018-03-29T00:18:06.292Z,9.39
2018-03-29T00:19:06.305Z,9.28
2018-03-29T00:20:06.536Z,9.23
2018-03-29T00:21:06.080Z,9.16
2018-03-29T00:22:06.375Z,9.18
2018-03-29T00:23:06.620Z,9.13
2018-03-29T00:24:06.680Z,9.29
2018-03-29T00:25:06.398Z,9.04
2018-03-29T00:26:06.416Z,8.95
2018-03-29T00:27:06.431Z,9.06
2018-03-29T00:28:06.449Z,8.95
2018-03-29T00:29:06.713Z,8.92
2018-03-29T00:30:06.221Z,8.79
2018-03-29T00:31:06.234Z,8.94
2018-03-29T00:32:06.253Z,8.78
2018-03-29T00:33:06.522Z,8.81
2018-03-29T00:34:06.563Z,8.79
2018-03-29T00:35:06.606Z,8.71
2018-03-29T00:36:06.576Z,8.82
2018-03-29T00:37:06.838Z,8.79
2018-03-29T00:38:06.857Z,8.67
2018-03-29T00:39:06.621Z,8.66
2018-03-29T00:40:06.745Z,8.73
2018-03-29T00:41:06.656Z,8.79
2018-03-29T00:42:06.676Z,8.78
2018-03-29T00:43:06.959Z,8.76
2018-03-29T00:44:06.969Z,8.73
2018-03-29T00:45:06.720Z,8.7
2018-03-29T00:46:07.001Z,8.69
2018-03-29T00:47:06.497Z,8.74
2018-03-29T00:48:06.517Z,8.66
2018-03-29T00:49:06.788Z,8.7
2018-03-29T00:50:06.547Z,8.76
2018-03-29T00:51:06.818Z,8.84
2018-03-29T00:52:07.094Z,8.76
2018-03-29T00:53:06.853Z,8.78
2018-03-29T00:54:06.858Z,8.76
2018-03-29T00:55:06.889Z,8.61
2018-03-29T00:56:06.948Z,8.45
2018-03-29T00:57:06.911Z,8.37
2018-03-29T00:58:07.181Z,8.41
2018-03-29T00:59:07.197Z,8.28
2018-03-29T01:00:06.965Z,8.2
2018-03-29T01:01:06.717Z,8.2
2018-03-29T01:02:06.733Z,8.18
2018-03-29T01:03:07.006Z,8.26
2018-03-29T01:04:06.770Z,8.23
2018-03-29T01:05:07.292Z,8.18
2018-03-29T01:06:06.849Z,8.12
2018-03-29T01:07:07.068Z,8.18
2018-03-29T01:08:07.092Z,8.1
2018-03-29T01:09:07.355Z,8.12
2018-03-29T01:10:07.113Z,8.12
2018-03-29T01:11:07.136Z,8.19
2018-03-29T01:12:07.143Z,8.19
2018-03-29T01:13:07.416Z,8.18
2018-03-29T01:14:07.432Z,8.12
2018-03-29T01:15:07.447Z,8.15
2018-03-29T01:16:06.956Z,8.15
2018-03-29T01:17:07.486Z,8.15
2018-03-29T01:18:07.263Z,8.12
2018-03-29T01:19:07.524Z,8.16
2018-03-29T01:20:07.534Z,8.16
2018-03-29T01:21:07.085Z,8.34
2018-03-29T01:22:07.306Z,8.38
2018-03-29T01:23:07.318Z,8.23
2018-03-29T01:24:07.584Z,8.24
2018-03-29T01:25:07.349Z,8.27
2018-03-29T01:26:07.364Z,8.18
2018-03-29T01:27:07.123Z,8.16
2018-03-29T01:28:07.398Z,8.06
2018-03-29T01:29:07.411Z,8.05
2018-03-29T01:30:07.690Z,7.93
2018-03-29T01:31:07.438Z,8.09
2018-03-29T01:32:07.456Z,8.01
2018-03-29T01:33:07.730Z,7.91
2018-03-29T01:34:07.490Z,7.85
2018-03-29T01:35:07.765Z,7.94
2018-03-29T01:36:07.574Z,7.83
2018-03-29T01:37:07.540Z,7.83
2018-03-29T01:38:07.549Z,7.72
2018-03-29T01:39:07.563Z,7.8
2018-03-29T01:40:07.836Z,7.79
2018-03-29T01:41:07.850Z,7.77
2018-03-29T01:42:07.607Z,7.79
2018-03-29T01:43:07.885Z,7.85
2018-03-29T01:44:07.890Z,7.83
2018-03-29T01:45:07.413Z,7.88
2018-03-29T01:46:07.934Z,7.76
2018-03-29T01:47:07.943Z,7.75
2018-03-29T01:48:07.964Z,7.66
2018-03-29T01:49:07.989Z,7.76
2018-03-29T01:50:07.995Z,7.76
2018-03-29T01:51:07.801Z,7.69
2018-03-29T01:52:07.763Z,7.69
2018-03-29T01:53:07.781Z,7.54
2018-03-29T01:54:07.792Z,7.56
2018-03-29T01:55:08.065Z,7.47
2018-03-29T01:56:07.824Z,7.45
2018-03-29T01:57:08.091Z,7.43
2018-03-29T01:58:08.108Z,7.36
2018-03-29T01:59:07.613Z,7.38
2018-03-29T02:00:07.878Z,7.24
2018-03-29T02:01:07.911Z,7.24
2018-03-29T02:02:07.914Z,7.17
2018-03-29T02:03:07.923Z,7.24
2018-03-29T02:04:08.191Z,7
2018-03-29T02:05:07.962Z,7.03
2018-03-29T02:06:08.275Z,7.14
2018-03-29T02:07:07.980Z,7.03
2018-03-29T02:08:08.253Z,7.13
2018-03-29T02:09:08.275Z,7.03
2018-03-29T02:10:07.780Z,6.99
2018-03-29T02:11:08.053Z,7.1
2018-03-29T02:12:07.812Z,7.07
2018-03-29T02:13:08.334Z,6.95
2018-03-29T02:14:08.094Z,6.95
2018-03-29T02:15:08.377Z,6.89
2018-03-29T02:16:08.389Z,6.88
2018-03-29T02:17:07.891Z,6.88
2018-03-29T02:18:08.416Z,6.87
2018-03-29T02:19:08.422Z,6.77
2018-03-29T02:20:08.463Z,6.74
2018-03-29T02:21:07.990Z,6.74
2018-03-29T02:22:07.958Z,6.72
2018-03-29T02:23:08.483Z,6.75
2018-03-29T02:24:08.507Z,6.57
2018-03-29T02:25:08.002Z,6.72
2018-03-29T02:26:08.069Z,6.72
2018-03-29T02:27:08.353Z,6.63
2018-03-29T02:28:08.047Z,6.72
2018-03-29T02:29:08.568Z,6.54
2018-03-29T02:30:08.337Z,6.54
2018-03-29T02:31:08.338Z,6.78
2018-03-29T02:32:08.636Z,6.77
2018-03-29T02:33:08.379Z,6.75
2018-03-29T02:34:08.136Z,6.69
2018-03-29T02:35:08.662Z,6.49
2018-03-29T02:36:08.689Z,6.52
2018-03-29T02:37:08.702Z,6.62
2018-03-29T02:38:08.786Z,6.69
2018-03-29T02:39:08.740Z,6.66
2018-03-29T02:40:08.506Z,6.75
2018-03-29T02:41:08.809Z,6.66
2018-03-29T02:42:08.771Z,6.51
2018-03-29T02:43:08.781Z,6.72
2018-03-29T02:44:08.588Z,6.67
2018-03-29T02:45:08.800Z,6.69
2018-03-29T02:46:08.663Z,6.89
2018-03-29T02:47:08.841Z,6.89
2018-03-29T02:48:08.863Z,6.87
2018-03-29T02:49:08.882Z,6.87
2018-03-29T02:50:08.873Z,6.85
2018-03-29T02:51:08.670Z,6.88
2018-03-29T02:52:08.649Z,6.88
2018-03-29T02:53:08.919Z,6.92
2018-03-29T02:54:08.936Z,7.05
2018-03-29T02:55:08.958Z,7
2018-03-29T02:56:09.024Z,7.11
2018-03-29T02:57:08.471Z,6.95
2018-03-29T02:58:08.997Z,7.06
2018-03-29T02:59:08.505Z,7.14
2018-03-29T03:00:09.030Z,7.02
2018-03-29T03:01:09.049Z,6.95
2018-03-29T03:02:08.808Z,6.99
2018-03-29T03:03:09.079Z,7.07
2018-03-29T03:04:08.835Z,7.02
2018-03-29T03:05:09.108Z,6.96
2018-03-29T03:06:08.859Z,6.93
2018-03-29T03:07:08.916Z,7.05
2018-03-29T03:08:08.653Z,6.92
2018-03-29T03:09:09.178Z,7
2018-03-29T03:10:09.175Z,6.97
2018-03-29T03:11:08.990Z,7.05
2018-03-29T03:12:08.948Z,6.95
2018-03-29T03:13:08.710Z,6.96
2018-03-29T03:14:09.234Z,6.95
2018-03-29T03:15:09.254Z,6.97
2018-03-29T03:16:09.264Z,6.89
2018-03-29T03:17:09.025Z,6.92
2018-03-29T03:18:09.037Z,6.99
2018-03-29T03:19:09.061Z,7.11
2018-03-29T03:20:09.327Z,7.13
2018-03-29T03:21:09.101Z,7.07
2018-03-29T03:22:09.140Z,7.17
2018-03-29T03:23:09.364Z,6.99
2018-03-29T03:24:09.229Z,7.11
2018-03-29T03:25:09.140Z,7.24
2018-03-29T03:26:09.202Z,7.15
2018-03-29T03:27:09.421Z,7.11
2018-03-29T03:28:09.187Z,7.18
2018-03-29T03:29:09.463Z,7.23
2018-03-29T03:30:09.231Z,7.29
2018-03-29T03:31:09.290Z,7.36
2018-03-29T03:32:09.506Z,7.32
2018-03-29T03:33:09.015Z,7.24
2018-03-29T03:34:09.261Z,7.21
2018-03-29T03:35:09.530Z,7.32
2018-03-29T03:36:09.548Z,7.35
2018-03-29T03:37:09.637Z,7.36
2018-03-29T03:38:09.588Z,7.35
2018-03-29T03:39:09.596Z,7.45
2018-03-29T03:40:09.604Z,7.39
2018-03-29T03:41:09.431Z,7.45
2018-03-29T03:42:09.632Z,7.58
2018-03-29T03:43:09.662Z,7.61
2018-03-29T03:44:09.679Z,7.69
2018-03-29T03:45:09.683Z,7.75
2018-03-29T03:46:09.723Z,7.75
2018-03-29T03:47:09.732Z,7.69
2018-03-29T03:48:09.747Z,7.8
2018-03-29T03:49:09.254Z,7.66
2018-03-29T03:50:09.525Z,7.66
2018-03-29T03:51:09.306Z,7.53
2018-03-29T03:52:09.552Z,7.63
2018-03-29T03:53:09.317Z,7.53
2018-03-29T03:54:09.659Z,7.4
2018-03-29T03:55:09.603Z,7.5
2018-03-29T03:56:09.921Z,7.53
2018-03-29T03:57:09.888Z,7.45
2018-03-29T03:58:09.648Z,7.48
2018-03-29T03:59:09.902Z,7.32
2018-03-29T04:00:09.681Z,7.2
2018-03-29T04:01:09.693Z,7.11
2018-03-29T04:02:09.967Z,7.23
2018-03-29T04:03:09.723Z,7.38
2018-03-29T04:04:09.993Z,7.31
2018-03-29T04:05:09.767Z,7.36
2018-03-29T04:06:10.028Z,7.47
2018-03-29T04:07:10.047Z,7.29
2018-03-29T04:08:09.808Z,7.31
2018-03-29T04:09:10.074Z,7.28
2018-03-29T04:10:10.098Z,7.32
2018-03-29T04:11:09.897Z,7.38
2018-03-29T04:12:09.865Z,7.31
2018-03-29T04:13:09.624Z,7.31
2018-03-29T04:14:10.187Z,7.33
2018-03-29T04:15:09.913Z,7.39
2018-03-29T04:16:09.669Z,7.33
2018-03-29T04:17:10.200Z,7.43
2018-03-29T04:18:10.207Z,7.32
2018-03-29T04:19:10.226Z,7.35
2018-03-29T04:20:10.236Z,7.32
2018-03-29T04:21:10.000Z,7.31
2018-03-29T04:22:10.281Z,7.11
2018-03-29T04:23:10.039Z,7.14
2018-03-29T04:24:10.047Z,7.17
2018-03-29T04:25:10.058Z,7.13
2018-03-29T04:26:10.377Z,7.11
2018-03-29T04:27:10.090Z,7.24
2018-03-29T04:28:10.361Z,7.25
2018-03-29T04:29:10.119Z,7.1
2018-03-29T04:30:10.141Z,7.14
2018-03-29T04:31:10.149Z,7.11
2018-03-29T04:32:10.447Z,7.25
2018-03-29T04:33:10.433Z,7.2
2018-03-29T04:34:10.221Z,7.17
2018-03-29T04:35:10.499Z,7
2018-03-29T04:36:10.276Z,6.92
2018-03-29T04:37:10.245Z,6.97
2018-03-29T04:38:10.508Z,6.96
2018-03-29T04:39:10.270Z,6.99
2018-03-29T04:40:10.290Z,6.97
2018-03-29T04:41:10.610Z,7.11
2018-03-29T04:42:10.316Z,6.99
2018-03-29T04:43:10.332Z,7.13
2018-03-29T04:44:10.362Z,6.92
2018-03-29T04:45:10.615Z,7.11
2018-03-29T04:46:10.122Z,6.81
2018-03-29T04:47:10.396Z,6.88
2018-03-29T04:48:10.407Z,6.93
2018-03-29T04:49:10.725Z,6.78
2018-03-29T04:50:10.687Z,6.84
2018-03-29T04:51:10.711Z,6.92
2018-03-29T04:52:10.474Z,6.93
2018-03-29T04:53:10.484Z,6.78
2018-03-29T04:54:10.244Z,6.84
2018-03-29T04:55:10.516Z,6.81
2018-03-29T04:56:10.583Z,6.75
2018-03-29T04:57:10.802Z,6.7
2018-03-29T04:58:10.812Z,6.78
2018-03-29T04:59:10.829Z,6.74
2018-03-29T05:00:10.335Z,6.79
2018-03-29T05:01:10.876Z,6.78
2018-03-29T05:02:10.871Z,6.67
2018-03-29T05:03:10.890Z,6.63
2018-03-29T05:04:10.642Z,6.74
2018-03-29T05:05:10.908Z,6.79
2018-03-29T05:06:10.673Z,6.75
2018-03-29T05:07:10.688Z,6.75
2018-03-29T05:08:10.948Z,6.78
2018-03-29T05:09:10.968Z,6.75
2018-03-29T05:10:10.980Z,6.77
2018-03-29T05:11:11.050Z,6.78
2018-03-29T05:12:10.759Z,6.79
2018-03-29T05:13:11.108Z,6.72
2018-03-29T05:14:11.045Z,6.84
2018-03-29T05:15:11.069Z,6.81
2018-03-29T05:16:10.835Z,6.87
2018-03-29T05:17:11.092Z,6.75
2018-03-29T05:18:10.856Z,6.77
2018-03-29T05:19:10.875Z,6.81
2018-03-29T05:20:11.145Z,6.74
2018-03-29T05:21:10.909Z,6.75
2018-03-29T05:22:10.922Z,6.79
2018-03-29T05:23:10.933Z,6.75
2018-03-29T05:24:11.204Z,6.79
2018-03-29T05:25:10.980Z,6.72
2018-03-29T05:26:11.133Z,6.54
2018-03-29T05:27:11.250Z,6.75
2018-03-29T05:28:11.266Z,6.84
2018-03-29T05:29:11.290Z,6.82
2018-03-29T05:30:11.291Z,6.95
2018-03-29T05:31:10.802Z,6.96
2018-03-29T05:32:11.088Z,6.79
2018-03-29T05:33:11.350Z,6.77
2018-03-29T05:34:11.095Z,6.74
2018-03-29T05:35:11.108Z,6.77
2018-03-29T05:36:11.373Z,6.72
2018-03-29T05:37:10.894Z,6.81
2018-03-29T05:38:11.167Z,6.72
2018-03-29T05:39:11.429Z,6.81
2018-03-29T05:40:11.601Z,6.77
2018-03-29T05:41:11.261Z,6.74
2018-03-29T05:42:11.482Z,6.87
2018-03-29T05:43:11.498Z,6.87
2018-03-29T05:44:11.508Z,6.95
2018-03-29T05:45:11.528Z,6.97
2018-03-29T05:46:11.287Z,6.96
2018-03-29T05:47:11.297Z,6.92
2018-03-29T05:48:11.574Z,6.78
2018-03-29T05:49:11.340Z,6.95
2018-03-29T05:50:11.345Z,6.96
2018-03-29T05:51:11.617Z,7.03
2018-03-29T05:52:11.374Z,7.07
2018-03-29T05:53:11.641Z,6.92
2018-03-29T05:54:11.412Z,7.03
2018-03-29T05:55:11.746Z,7.07
2018-03-29T05:56:11.841Z,7.13
2018-03-29T05:57:11.196Z,7.13
2018-03-29T05:58:11.732Z,7.17
2018-03-29T05:59:11.752Z,7.32
2018-03-29T06:00:11.759Z,7.39
2018-03-29T06:01:11.513Z,7.42
2018-03-29T06:02:11.783Z,7.51
2018-03-29T06:03:12.003Z,7.38
2018-03-29T06:04:11.817Z,7.47
2018-03-29T06:05:11.828Z,7.43
2018-03-29T06:06:11.840Z,7.43
2018-03-29T06:07:11.660Z,7.45
2018-03-29T06:08:11.625Z,7.69
2018-03-29T06:09:11.894Z,7.67
2018-03-29T06:10:11.398Z,7.67
2018-03-29T06:11:11.724Z,7.82
2018-03-29T06:12:11.964Z,7.66
2018-03-29T06:13:11.697Z,7.56
2018-03-29T06:14:11.460Z,7.56
2018-03-29T06:15:12.006Z,7.69
2018-03-29T06:16:11.744Z,7.45
2018-03-29T06:17:12.015Z,7.56
2018-03-29T06:18:11.776Z,7.48
2018-03-29T06:19:11.542Z,7.57
2018-03-29T06:20:11.548Z,7.54
2018-03-29T06:21:11.828Z,7.53
2018-03-29T06:22:11.836Z,7.57
2018-03-29T06:23:12.163Z,7.42
2018-03-29T06:24:12.126Z,7.36
2018-03-29T06:25:12.150Z,7.47
2018-03-29T06:26:12.211Z,7.48
2018-03-29T06:27:12.170Z,7.43
2018-03-29T06:28:11.930Z,7.48
2018-03-29T06:29:11.693Z,7.43
2018-03-29T06:30:12.408Z,7.24
2018-03-29T06:31:12.287Z,7.17
2018-03-29T06:32:12.257Z,7.29
2018-03-29T06:33:12.001Z,7.4
2018-03-29T06:34:11.759Z,7.56
2018-03-29T06:35:12.281Z,7.43
2018-03-29T06:36:12.304Z,7.39
2018-03-29T06:37:12.060Z,7.33
2018-03-29T06:38:12.089Z,7.5
2018-03-29T06:39:12.342Z,7.58
2018-03-29T06:40:12.375Z,7.66
2018-03-29T06:41:12.389Z,7.69
2018-03-29T06:42:12.409Z,7.77
2018-03-29T06:43:11.910Z,7.88
2018-03-29T06:44:12.438Z,7.75
2018-03-29T06:45:12.462Z,7.82
2018-03-29T06:46:12.517Z,7.94
2018-03-29T06:47:12.465Z,7.9
2018-03-29T06:48:12.258Z,7.98
2018-03-29T06:49:12.245Z,8.03
2018-03-29T06:50:12.513Z,8.09
2018-03-29T06:51:12.280Z,8.13
2018-03-29T06:52:12.299Z,8.27
2018-03-29T06:53:12.304Z,8.3
2018-03-29T06:54:12.323Z,8.37
2018-03-29T06:55:12.601Z,8.44
2018-03-29T06:56:12.375Z,8.48
2018-03-29T06:57:12.625Z,8.38
2018-03-29T06:58:12.386Z,8.34
2018-03-29T06:59:12.422Z,8.51
2018-03-29T07:00:12.199Z,8.51
2018-03-29T07:01:12.611Z,8.49
2018-03-29T07:02:12.204Z,8.34
2018-03-29T07:03:12.729Z,8.37
2018-03-29T07:04:12.751Z,8.31
2018-03-29T07:05:12.766Z,8.13
2018-03-29T07:06:12.787Z,8.12
2018-03-29T07:07:12.797Z,8.03
2018-03-29T07:08:12.826Z,7.93
2018-03-29T07:09:12.584Z,7.9
2018-03-29T07:10:13.008Z,7.72
2018-03-29T07:11:12.912Z,7.67
2018-03-29T07:12:12.631Z,7.58
2018-03-29T07:13:12.909Z,7.67
2018-03-29T07:14:12.913Z,7.72
2018-03-29T07:15:12.933Z,7.83
2018-03-29T07:16:12.948Z,7.98
2018-03-29T07:17:12.963Z,7.91
2018-03-29T07:18:12.729Z,8.13
2018-03-29T07:19:12.744Z,8.23
2018-03-29T07:20:13.062Z,8.42
2018-03-29T07:21:13.023Z,8.12
2018-03-29T07:22:13.059Z,8.24
2018-03-29T07:23:12.811Z,8.36
2018-03-29T07:24:12.569Z,8.33
2018-03-29T07:25:13.152Z,8.12
2018-03-29T07:26:13.112Z,8.26
2018-03-29T07:27:12.878Z,8.15
2018-03-29T07:28:12.895Z,8.13
2018-03-29T07:29:12.651Z,8.31
2018-03-29T07:30:13.177Z,8.38
2018-03-29T07:31:13.190Z,8.34
2018-03-29T07:32:13.229Z,8.45
2018-03-29T07:33:12.958Z,8.71
2018-03-29T07:34:13.231Z,8.73
2018-03-29T07:35:13.257Z,8.67
2018-03-29T07:36:13.269Z,8.61
2018-03-29T07:37:13.288Z,8.49
2018-03-29T07:38:13.047Z,8.53
2018-03-29T07:39:13.320Z,8.56
2018-03-29T07:40:13.382Z,8.55
2018-03-29T07:41:13.362Z,8.3
2018-03-29T07:42:12.861Z,8.36
2018-03-29T07:43:13.127Z,8.27
2018-03-29T07:44:13.182Z,8.2
2018-03-29T07:45:13.164Z,8.18
2018-03-29T07:46:13.436Z,8.28
2018-03-29T07:47:13.592Z,8.34
2018-03-29T07:48:13.209Z,8.48
2018-03-29T07:49:13.483Z,8.48
2018-03-29T07:50:12.990Z,8.34
2018-03-29T07:51:13.259Z,8.3
2018-03-29T07:52:13.021Z,8.51
2018-03-29T07:53:13.637Z,8.51
2018-03-29T07:54:13.307Z,8.24
2018-03-29T07:55:13.642Z,8.42
2018-03-29T07:56:13.350Z,8.56
2018-03-29T07:57:13.100Z,8.63
2018-03-29T07:58:13.629Z,8.67
2018-03-29T07:59:13.141Z,8.63
2018-03-29T08:00:13.665Z,8.63
2018-03-29T08:01:13.677Z,8.76
2018-03-29T08:02:13.196Z,8.78
2018-03-29T08:03:13.705Z,8.84
2018-03-29T08:04:13.737Z,8.82
2018-03-29T08:05:13.737Z,9
2018-03-29T08:06:13.907Z,9.04
2018-03-29T08:07:13.774Z,9.32
2018-03-29T08:08:13.805Z,9.34
2018-03-29T08:09:13.819Z,9.4
2018-03-29T08:10:13.680Z,9.43
2018-03-29T08:11:13.845Z,9.56
2018-03-29T08:12:13.857Z,9.65
2018-03-29T08:13:13.620Z,9.34
2018-03-29T08:14:13.901Z,9.32
2018-03-29T08:15:13.653Z,9.29
2018-03-29T08:16:13.658Z,9.36
2018-03-29T08:17:13.922Z,9.48
2018-03-29T08:18:13.941Z,9.51
2018-03-29T08:19:13.971Z,9.56
2018-03-29T08:20:13.740Z,9.73
2018-03-29T08:21:13.996Z,9.65
2018-03-29T08:22:14.017Z,9.66
2018-03-29T08:23:14.027Z,9.84
2018-03-29T08:24:13.539Z,9.92
2018-03-29T08:25:14.062Z,10.01
2018-03-29T08:26:13.822Z,10.09
2018-03-29T08:27:13.837Z,10.04
2018-03-29T08:28:14.106Z,10.13
2018-03-29T08:29:14.131Z,10.26
2018-03-29T08:30:13.904Z,10.22
2018-03-29T08:31:14.180Z,10.28
2018-03-29T08:32:13.686Z,10.28
2018-03-29T08:33:14.342Z,10.35
2018-03-29T08:34:13.972Z,10.3
2018-03-29T08:35:14.037Z,10.3
2018-03-29T08:36:14.264Z,10.3
2018-03-29T08:37:14.024Z,10.49
2018-03-29T08:38:14.296Z,10.63
2018-03-29T08:39:14.309Z,10.68
2018-03-29T08:40:14.335Z,10.74
2018-03-29T08:41:14.095Z,10.87
2018-03-29T08:42:14.380Z,10.96
2018-03-29T08:43:14.138Z,10.9
2018-03-29T08:44:14.399Z,10.75
2018-03-29T08:45:14.162Z,10.72
2018-03-29T08:46:14.180Z,10.79
2018-03-29T08:47:14.198Z,10.86
2018-03-29T08:48:14.219Z,10.22
2018-03-29T08:49:14.236Z,9.84
2018-03-29T08:50:14.303Z,9.95
2018-03-29T08:51:14.528Z,9.86
2018-03-29T08:52:14.539Z,9.68
2018-03-29T08:53:14.560Z,9.55
2018-03-29T08:54:14.574Z,9.8
2018-03-29T08:55:14.603Z,9.83
2018-03-29T08:56:14.359Z,9.8
2018-03-29T08:57:14.631Z,9.74
2018-03-29T08:58:14.391Z,9.82
2018-03-29T08:59:14.416Z,9.62
2018-03-29T09:00:14.686Z,9.55
2018-03-29T09:01:14.700Z,9.66
2018-03-29T09:02:14.215Z,9.84
2018-03-29T09:03:14.740Z,9.92
2018-03-29T09:04:14.762Z,10.16
2018-03-29T09:05:14.516Z,10.38
2018-03-29T09:06:14.535Z,10.71
2018-03-29T09:07:14.300Z,11.1
2018-03-29T09:08:14.846Z,11.04
2018-03-29T09:09:14.890Z,11.32
2018-03-29T09:10:14.349Z,11.44
2018-03-29T09:11:14.623Z,11.62
2018-03-29T09:12:14.389Z,11.75
2018-03-29T09:13:14.406Z,11.94
2018-03-29T09:14:14.676Z,11.97
2018-03-29T09:15:14.950Z,11.99
2018-03-29T09:16:14.718Z,12.1
2018-03-29T09:17:14.740Z,12.15
2018-03-29T09:18:14.749Z,12.28
2018-03-29T09:19:14.824Z,12.43
2018-03-29T09:20:14.794Z,12.5
2018-03-29T09:21:14.805Z,12.49
2018-03-29T09:22:14.821Z,12.64
2018-03-29T09:23:14.843Z,12.61
2018-03-29T09:24:14.862Z,12.46
2018-03-29T09:25:14.883Z,12.45
2018-03-29T09:26:14.899Z,12.55
2018-03-29T09:27:14.931Z,12.6
2018-03-29T09:28:15.189Z,12.64
2018-03-29T09:29:15.203Z,12.75
2018-03-29T09:30:15.238Z,12.43
2018-03-29T09:31:14.999Z,12.13
2018-03-29T09:32:15.041Z,12.1
2018-03-29T09:33:15.032Z,12.29
2018-03-29T09:34:15.107Z,12.45
2018-03-29T09:35:15.068Z,12.45
2018-03-29T09:36:14.846Z,12.57
2018-03-29T09:37:15.111Z,12.46
2018-03-29T09:38:15.379Z,12.42
2018-03-29T09:39:15.400Z,12.18
2018-03-29T09:40:15.172Z,11.87
2018-03-29T09:41:15.440Z,12.07
2018-03-29T09:42:15.202Z,12.28
2018-03-29T09:43:15.223Z,12.46
2018-03-29T09:44:15.495Z,12.4
2018-03-29T09:45:15.514Z,12.32
2018-03-29T09:46:15.282Z,12.32
2018-03-29T09:47:15.045Z,12
2018-03-29T09:48:15.319Z,11.12
2018-03-29T09:49:15.343Z,11.05
2018-03-29T09:50:15.411Z,11.3
2018-03-29T09:51:15.634Z,11.55
2018-03-29T09:52:15.150Z,11.54
2018-03-29T09:53:15.417Z,11.32
2018-03-29T09:54:15.692Z,11.35
2018-03-29T09:55:15.456Z,11.52
2018-03-29T09:56:15.726Z,11.6
2018-03-29T09:57:15.745Z,11.73
2018-03-29T09:58:15.761Z,12.02
2018-03-29T09:59:15.786Z,12.06
2018-03-29T10:00:15.545Z,12.25
2018-03-29T10:01:15.565Z,12.18
2018-03-29T10:02:15.587Z,12.18
2018-03-29T10:03:15.347Z,12.18
2018-03-29T10:04:15.881Z,12.28
2018-03-29T10:05:15.950Z,12.46
2018-03-29T10:06:15.664Z,12.62
2018-03-29T10:07:15.942Z,12.73
2018-03-29T10:08:15.977Z,12.61
2018-03-29T10:09:15.726Z,12.73
2018-03-29T10:10:16.001Z,13.15
2018-03-29T10:11:15.768Z,13.46
2018-03-29T10:12:16.180Z,13.72
2018-03-29T10:13:15.547Z,13.9
2018-03-29T10:14:16.080Z,14
2018-03-29T10:15:16.101Z,14.32
2018-03-29T10:16:15.872Z,14.45
2018-03-29T10:17:16.139Z,14.58
2018-03-29T10:18:15.909Z,14.51
2018-03-29T10:19:16.176Z,14.28
2018-03-29T10:20:16.002Z,14.04
2018-03-29T10:21:16.220Z,13.93
2018-03-29T10:22:16.244Z,14.07
2018-03-29T10:23:16.015Z,14.11
2018-03-29T10:24:16.089Z,14.26
2018-03-29T10:25:16.304Z,14.35
2018-03-29T10:26:16.325Z,14.5
2018-03-29T10:27:16.345Z,14.35
2018-03-29T10:28:16.397Z,13.85
2018-03-29T10:29:16.398Z,13.83
2018-03-29T10:30:16.518Z,13.67
2018-03-29T10:31:16.439Z,13.89
2018-03-29T10:32:16.475Z,14
2018-03-29T10:33:16.483Z,14.25
2018-03-29T10:34:16.247Z,14.37
2018-03-29T10:35:16.317Z,14.15
2018-03-29T10:36:16.546Z,13.85
2018-03-29T10:37:16.566Z,13.67
2018-03-29T10:38:16.597Z,13.65
2018-03-29T10:39:16.608Z,13.54
2018-03-29T10:40:16.675Z,13.63
2018-03-29T10:41:16.715Z,13.71
2018-03-29T10:42:16.421Z,13.54
2018-03-29T10:43:16.703Z,12.9
2018-03-29T10:44:16.469Z,13.08
2018-03-29T10:45:16.735Z,12.76
2018-03-29T10:46:16.545Z,12.73
2018-03-29T10:47:16.775Z,12.86
2018-03-29T10:48:16.288Z,12.95
2018-03-29T10:49:16.564Z,13.04
2018-03-29T10:50:16.843Z,13.23
2018-03-29T10:51:16.889Z,13.19
2018-03-29T10:52:16.889Z,13.49
2018-03-29T10:53:16.650Z,13.59
2018-03-29T10:54:16.680Z,13.85
2018-03-29T10:55:16.692Z,13.7
2018-03-29T10:56:17.171Z,13.44
2018-03-29T10:57:17.046Z,13.54
2018-03-29T10:58:17.016Z,13.85
2018-03-29T10:59:17.030Z,14.17
2018-03-29T11:00:16.804Z,14.47
2018-03-29T11:01:17.075Z,14.22
2018-03-29T11:02:16.842Z,14.05
2018-03-29T11:03:17.183Z,14.11
2018-03-29T11:04:16.888Z,14.33
2018-03-29T11:05:16.656Z,14.72
2018-03-29T11:06:16.931Z,14.89
2018-03-29T11:07:16.970Z,15.09
2018-03-29T11:08:17.227Z,15.36
2018-03-29T11:09:17.270Z,16.05
2018-03-29T11:10:17.284Z,16.75
2018-03-29T11:11:17.352Z,17.29
2018-03-29T11:12:17.077Z,17.36
2018-03-29T11:13:17.356Z,17.36
2018-03-29T11:14:16.879Z,17.14
2018-03-29T11:15:17.399Z,17.26
2018-03-29T11:16:17.426Z,17.52
2018-03-29T11:17:17.452Z,17.9
2018-03-29T11:18:17.476Z,18.04
2018-03-29T11:19:17.245Z,18.31
2018-03-29T11:20:17.270Z,18.65
2018-03-29T11:21:17.291Z,19.07
2018-03-29T11:22:17.320Z,19.52
2018-03-29T11:23:17.602Z,20
2018-03-29T11:24:17.636Z,20.29
2018-03-29T11:25:17.680Z,20.14
2018-03-29T11:26:17.746Z,20.24
2018-03-29T11:27:17.715Z,20.39
2018-03-29T11:28:17.485Z,20.21
2018-03-29T11:29:17.772Z,19.84
2018-03-29T11:30:17.540Z,19.76
2018-03-29T11:31:17.568Z,19.74
2018-03-29T11:32:17.854Z,19.09
2018-03-29T11:33:17.634Z,19.18
2018-03-29T11:34:17.647Z,18.84
2018-03-29T11:35:17.691Z,18.84
2018-03-29T11:36:18.062Z,18.99
2018-03-29T11:37:17.990Z,19.3
2018-03-29T11:38:17.761Z,19.3
2018-03-29T11:39:17.786Z,19.44
2018-03-29T11:40:18.072Z,19.88
2018-03-29T11:41:18.152Z,20.39
2018-03-29T11:42:18.131Z,20.22
2018-03-29T11:43:18.164Z,20.21
2018-03-29T11:44:18.181Z,20.44
2018-03-29T11:45:18.222Z,20.72
2018-03-29T11:46:18.008Z,21.27
2018-03-29T11:47:18.259Z,21.54
2018-03-29T11:48:18.088Z,21.12
2018-03-29T11:49:18.322Z,20.97
2018-03-29T11:50:18.115Z,21.03
2018-03-29T11:51:18.375Z,20.65
2018-03-29T11:52:18.158Z,20.43
2018-03-29T11:53:18.440Z,20.09
2018-03-29T11:54:18.480Z,20.07
2018-03-29T11:55:17.990Z,19.44
2018-03-29T11:56:18.324Z,18.93
2018-03-29T11:57:18.578Z,18.84
2018-03-29T11:58:18.324Z,18.92
2018-03-29T11:59:18.356Z,19.59
2018-03-29T12:00:18.641Z,20.18
2018-03-29T12:01:18.671Z,20.69
2018-03-29T12:02:18.703Z,20.9
2018-03-29T12:03:18.726Z,20.84
2018-03-29T12:04:18.757Z,20.85
2018-03-29T12:05:18.809Z,20.84
2018-03-29T12:06:18.807Z,20.81
2018-03-29T12:07:18.838Z,20.72
2018-03-29T12:08:18.613Z,20.92
2018-03-29T12:09:18.894Z,20.92
2018-03-29T12:10:18.667Z,20.7
2018-03-29T12:11:18.747Z,20.8
2018-03-29T12:12:18.969Z,21.02
2018-03-29T12:13:19.012Z,20.93
2018-03-29T12:14:19.027Z,21.22
2018-03-29T12:15:18.801Z,20.51
2018-03-29T12:16:18.832Z,19.45
2018-03-29T12:17:18.601Z,19.14
2018-03-29T12:18:19.143Z,19.02
2018-03-29T12:19:18.910Z,19.16
2018-03-29T12:20:19.181Z,19.24
2018-03-29T12:21:19.229Z,19.07
2018-03-29T12:22:19.244Z,18.77
2018-03-29T12:23:19.267Z,18.93
2018-03-29T12:24:19.291Z,19.11
2018-03-29T12:25:19.067Z,19.56
2018-03-29T12:26:19.144Z,20.02
2018-03-29T12:27:19.150Z,20.34
2018-03-29T12:28:19.402Z,20.66
2018-03-29T12:29:19.194Z,20.8
2018-03-29T12:30:19.204Z,20.67
2018-03-29T12:31:19.276Z,20.6
2018-03-29T12:32:19.249Z,20.67
2018-03-29T12:33:19.552Z,20.48
2018-03-29T12:34:19.313Z,20.58
2018-03-29T12:35:19.332Z,21
2018-03-29T12:36:19.517Z,21.05
2018-03-29T12:37:19.130Z,21.36
2018-03-29T12:38:19.416Z,21.79
2018-03-29T12:39:19.695Z,21.98
2018-03-29T12:40:19.730Z,21.72
2018-03-29T12:41:19.750Z,21.72
2018-03-29T12:42:19.532Z,21.7
2018-03-29T12:43:19.292Z,21.57
2018-03-29T12:44:19.319Z,21.48
2018-03-29T12:45:19.599Z,21.25
2018-03-29T12:46:19.880Z,20.87
2018-03-29T12:47:19.909Z,20.88
2018-03-29T12:48:20.024Z,20.4
2018-03-29T12:49:19.453Z,20.11
2018-03-29T12:50:19.797Z,19.79
2018-03-29T12:51:19.813Z,19.64
2018-03-29T12:52:19.790Z,19.18
2018-03-29T12:53:19.827Z,18.45
2018-03-29T12:54:20.095Z,18.15
2018-03-29T12:55:20.118Z,17.65
2018-03-29T12:56:19.894Z,17.9
2018-03-29T12:57:19.662Z,17.74
2018-03-29T12:58:19.940Z,17.65
2018-03-29T12:59:20.219Z,17.7
2018-03-29T13:00:20.262Z,17.71
2018-03-29T13:01:20.270Z,17.78
2018-03-29T13:02:20.299Z,17.72
2018-03-29T13:03:20.325Z,17.27
2018-03-29T13:04:20.352Z,17.29
2018-03-29T13:05:20.381Z,17.29
2018-03-29T13:06:20.448Z,17.39
2018-03-29T13:07:20.162Z,17.54
2018-03-29T13:08:19.935Z,17.67
2018-03-29T13:09:20.468Z,17.72
2018-03-29T13:10:19.989Z,17.74
2018-03-29T13:11:20.005Z,17.56
2018-03-29T13:12:20.544Z,17.42